Terminal Aerodrome Forecast
Issued by NWS Sterling, VA

Current Version | Previous Version | Graphics & Text | Print | Product List | Glossary On
Versions: 1 2 3 4 5 6 7 8 9 10 11 12 13 14 15 16 17 18 19 20 21 22 23
000
FTUS41 KLWX 281700
TAFMRB
TAF
KMRB 281730Z 2818/2918 18004KT P6SM SCT250
     FM290400 00000KT P6SM BKN130
     FM290600 00000KT 3SM BR BKN130
     FM290900 00000KT 1SM BR BKN130
     FM291300 VRB03KT P6SM BKN130=

USA.gov is the U.S. government's official web portal to all federal, state and local government web resources and services.